sensor_id;sensor_type;location;lat;lon;timestamp;P1;durP1;ratioP1;P2;durP2;ratioP2
14714;SDS011;7448;52.698;5.186;2022-08-11T00:01:17;0.10;;;0.10;;
14714;SDS011;7448;52.698;5.186;2022-08-11T00:03:49;0.20;;;0.20;;
14714;SDS011;7448;52.698;5.186;2022-08-11T00:06:22;0.10;;;0.10;;
14714;SDS011;7448;52.698;5.186;2022-08-11T00:08:48;0.10;;;0.10;;
14714;SDS011;7448;52.698;5.186;2022-08-11T00:11:15;0.10;;;0.10;;
14714;SDS011;7448;52.698;5.186;2022-08-11T00:13:45;0.10;;;0.10;;
14714;SDS011;7448;52.698;5.186;2022-08-11T00:16:17;0.13;;;0.13;;
14714;SDS011;7448;52.698;5.186;2022-08-11T00:18:48;0.20;;;0.20;;
14714;SDS011;7448;52.698;5.186;2022-08-11T00:21:15;0.20;;;0.20;;
14714;SDS011;7448;52.698;5.186;2022-08-11T00:23:43;0.20;;;0.20;;
14714;SDS011;7448;52.698;5.186;2022-08-11T00:26:11;0.20;;;0.20;;
14714;SDS011;7448;52.698;5.186;2022-08-11T00:28:38;0.10;;;0.10;;
14714;SDS011;7448;52.698;5.186;2022-08-11T00:31:07;0.17;;;0.17;;
14714;SDS011;7448;52.698;5.186;2022-08-11T00:33:36;0.10;;;0.10;;
14714;SDS011;7448;52.698;5.186;2022-08-11T00:36:04;0.10;;;0.10;;
14714;SDS011;7448;52.698;5.186;2022-08-11T00:38:33;0.17;;;0.17;;
14714;SDS011;7448;52.698;5.186;2022-08-11T00:46:36;0.20;;;0.20;;
14714;SDS011;7448;52.698;5.186;2022-08-11T00:56:45;0.20;;;0.20;;
14714;SDS011;7448;52.698;5.186;2022-08-11T01:02:18;0.20;;;0.20;;
14714;SDS011;7448;52.698;5.186;2022-08-11T01:07:37;0.20;;;0.20;;
14714;SDS011;7448;52.698;5.186;2022-08-11T01:25:41;0.20;;;0.20;;
14714;SDS011;7448;52.698;5.186;2022-08-11T01:28:39;0.10;;;0.10;;
14714;SDS011;7448;52.698;5.186;2022-08-11T01:31:25;0.20;;;0.20;;
14714;SDS011;7448;52.698;5.186;2022-08-11T01:47:18;0.10;;;0.10;;
14714;SDS011;7448;52.698;5.186;2022-08-11T01:53:22;0.10;;;0.10;;
14714;SDS011;7448;52.698;5.186;2022-08-11T01:58:42;0.20;;;0.20;;
14714;SDS011;7448;52.698;5.186;2022-08-11T02:03:53;0.20;;;0.20;;
14714;SDS011;7448;52.698;5.186;2022-08-11T02:06:30;0.10;;;0.10;;
14714;SDS011;7448;52.698;5.186;2022-08-11T02:14:58;0.10;;;0.10;;
14714;SDS011;7448;52.698;5.186;2022-08-11T02:17:35;0.10;;;0.10;;
14714;SDS011;7448;52.698;5.186;2022-08-11T02:20:09;0.20;;;0.20;;
14714;SDS011;7448;52.698;5.186;2022-08-11T02:23:02;0.10;;;0.10;;
14714;SDS011;7448;52.698;5.186;2022-08-11T02:34:20;0.15;;;0.15;;
14714;SDS011;7448;52.698;5.186;2022-08-11T02:36:57;0.20;;;0.20;;
14714;SDS011;7448;52.698;5.186;2022-08-11T02:39:28;0.15;;;0.15;;
14714;SDS011;7448;52.698;5.186;2022-08-11T02:42:05;0.20;;;0.20;;
14714;SDS011;7448;52.698;5.186;2022-08-11T02:45:02;0.20;;;0.20;;
14714;SDS011;7448;52.698;5.186;2022-08-11T02:50:12;0.10;;;0.10;;
14714;SDS011;7448;52.698;5.186;2022-08-11T02:52:50;0.20;;;0.20;;
14714;SDS011;7448;52.698;5.186;2022-08-11T02:58:11;0.20;;;0.20;;
14714;SDS011;7448;52.698;5.186;2022-08-11T03:00:56;0.20;;;0.20;;
14714;SDS011;7448;52.698;5.186;2022-08-11T03:03:24;0.20;;;0.20;;
14714;SDS011;7448;52.698;5.186;2022-08-11T03:11:30;0.20;;;0.20;;
14714;SDS011;7448;52.698;5.186;2022-08-11T03:14:26;0.20;;;0.20;;
14714;SDS011;7448;52.698;5.186;2022-08-11T03:19:54;0.20;;;0.20;;
14714;SDS011;7448;52.698;5.186;2022-08-11T03:22:35;0.20;;;0.20;;
14714;SDS011;7448;52.698;5.186;2022-08-11T03:25:11;0.20;;;0.20;;
14714;SDS011;7448;52.698;5.186;2022-08-11T03:27:59;0.20;;;0.20;;
14714;SDS011;7448;52.698;5.186;2022-08-11T03:30:39;0.10;;;0.10;;
14714;SDS011;7448;52.698;5.186;2022-08-11T03:38:25;0.20;;;0.20;;
14714;SDS011;7448;52.698;5.186;2022-08-11T03:43:51;0.20;;;0.20;;
14714;SDS011;7448;52.698;5.186;2022-08-11T03:49:06;0.20;;;0.20;;
14714;SDS011;7448;52.698;5.186;2022-08-11T04:26:40;0.20;;;0.20;;
14714;SDS011;7448;52.698;5.186;2022-08-11T04:29:19;0.20;;;0.20;;
14714;SDS011;7448;52.698;5.186;2022-08-11T04:31:59;0.20;;;0.20;;
14714;SDS011;7448;52.698;5.186;2022-08-11T04:34:36;0.20;;;0.20;;
14714;SDS011;7448;52.698;5.186;2022-08-11T04:51:13;0.20;;;0.20;;
14714;SDS011;7448;52.698;5.186;2022-08-11T04:56:58;0.10;;;0.10;;
14714;SDS011;7448;52.698;5.186;2022-08-11T05:13:23;0.13;;;0.13;;
14714;SDS011;7448;52.698;5.186;2022-08-11T05:16:11;0.10;;;0.10;;
14714;SDS011;7448;52.698;5.186;2022-08-11T05:18:57;0.10;;;0.10;;
14714;SDS011;7448;52.698;5.186;2022-08-11T05:21:46;0.05;;;0.05;;
14714;SDS011;7448;52.698;5.186;2022-08-11T05:24:34;0.10;;;0.10;;
14714;SDS011;7448;52.698;5.186;2022-08-11T05:27:21;0.00;;;0.00;;
14714;SDS011;7448;52.698;5.186;2022-08-11T05:30:09;0.10;;;0.10;;
14714;SDS011;7448;52.698;5.186;2022-08-11T05:32:58;0.10;;;0.10;;
14714;SDS011;7448;52.698;5.186;2022-08-11T05:35:44;0.10;;;0.10;;
14714;SDS011;7448;52.698;5.186;2022-08-11T05:38:15;0.10;;;0.10;;
14714;SDS011;7448;52.698;5.186;2022-08-11T05:41:00;0.10;;;0.10;;
14714;SDS011;7448;52.698;5.186;2022-08-11T05:43:46;0.10;;;0.10;;
14714;SDS011;7448;52.698;5.186;2022-08-11T05:46:38;0.10;;;0.10;;
14714;SDS011;7448;52.698;5.186;2022-08-11T05:49:28;0.10;;;0.10;;
14714;SDS011;7448;52.698;5.186;2022-08-11T05:52:15;0.00;;;0.00;;
14714;SDS011;7448;52.698;5.186;2022-08-11T05:55:01;0.10;;;0.10;;
14714;SDS011;7448;52.698;5.186;2022-08-11T05:57:47;0.10;;;0.10;;
14714;SDS011;7448;52.698;5.186;2022-08-11T06:00:14;0.10;;;0.10;;
14714;SDS011;7448;52.698;5.186;2022-08-11T06:02:50;0.10;;;0.10;;
14714;SDS011;7448;52.698;5.186;2022-08-11T06:05:19;0.10;;;0.10;;
14714;SDS011;7448;52.698;5.186;2022-08-11T06:07:47;0.00;;;0.00;;
14714;SDS011;7448;52.698;5.186;2022-08-11T06:10:13;0.10;;;0.10;;
14714;SDS011;7448;52.698;5.186;2022-08-11T06:12:51;0.10;;;0.10;;
14714;SDS011;7448;52.698;5.186;2022-08-11T06:15:19;0.10;;;0.10;;
14714;SDS011;7448;52.698;5.186;2022-08-11T06:17:45;0.00;;;0.00;;
14714;SDS011;7448;52.698;5.186;2022-08-11T06:20:15;0.00;;;0.00;;
14714;SDS011;7448;52.698;5.186;2022-08-11T06:22:43;0.08;;;0.08;;
14714;SDS011;7448;52.698;5.186;2022-08-11T06:25:11;0.00;;;0.00;;
14714;SDS011;7448;52.698;5.186;2022-08-11T06:27:39;0.10;;;0.10;;
14714;SDS011;7448;52.698;5.186;2022-08-11T06:30:07;0.00;;;0.00;;
14714;SDS011;7448;52.698;5.186;2022-08-11T06:32:40;0.10;;;0.10;;
14714;SDS011;7448;52.698;5.186;2022-08-11T06:35:22;0.05;;;0.05;;
14714;SDS011;7448;52.698;5.186;2022-08-11T06:45:47;0.00;;;0.00;;
14714;SDS011;7448;52.698;5.186;2022-08-11T06:48:17;0.10;;;0.10;;
14714;SDS011;7448;52.698;5.186;2022-08-11T06:50:49;0.00;;;0.00;;
14714;SDS011;7448;52.698;5.186;2022-08-11T06:53:34;0.00;;;0.00;;
14714;SDS011;7448;52.698;5.186;2022-08-11T06:56:04;0.05;;;0.05;;
14714;SDS011;7448;52.698;5.186;2022-08-11T06:58:50;0.00;;;0.00;;
14714;SDS011;7448;52.698;5.186;2022-08-11T07:01:38;0.10;;;0.10;;
14714;SDS011;7448;52.698;5.186;2022-08-11T07:04:11;0.10;;;0.10;;
14714;SDS011;7448;52.698;5.186;2022-08-11T07:06:40;0.00;;;0.00;;
14714;SDS011;7448;52.698;5.186;2022-08-11T07:09:21;0.00;;;0.00;;
14714;SDS011;7448;52.698;5.186;2022-08-11T07:12:25;0.10;;;0.10;;
14714;SDS011;7448;52.698;5.186;2022-08-11T07:15:15;0.10;;;0.10;;
14714;SDS011;7448;52.698;5.186;2022-08-11T07:18:01;0.00;;;0.00;;
14714;SDS011;7448;52.698;5.186;2022-08-11T07:20:48;0.08;;;0.08;;
14714;SDS011;7448;52.698;5.186;2022-08-11T07:23:34;0.10;;;0.10;;
14714;SDS011;7448;52.698;5.186;2022-08-11T07:26:21;0.10;;;0.10;;
14714;SDS011;7448;52.698;5.186;2022-08-11T07:29:09;0.10;;;0.10;;
14714;SDS011;7448;52.698;5.186;2022-08-11T07:31:37;0.00;;;0.00;;
14714;SDS011;7448;52.698;5.186;2022-08-11T07:34:19;0.00;;;0.00;;
14714;SDS011;7448;52.698;5.186;2022-08-11T07:36:51;0.03;;;0.03;;
14714;SDS011;7448;52.698;5.186;2022-08-11T07:39:19;0.00;;;0.00;;
14714;SDS011;7448;52.698;5.186;2022-08-11T07:41:46;0.00;;;0.00;;
14714;SDS011;7448;52.698;5.186;2022-08-11T07:44:14;0.05;;;0.05;;
14714;SDS011;7448;52.698;5.186;2022-08-11T07:46:41;0.00;;;0.00;;
14714;SDS011;7448;52.698;5.186;2022-08-11T07:49:31;0.00;;;0.00;;
14714;SDS011;7448;52.698;5.186;2022-08-11T07:52:17;0.00;;;0.00;;
14714;SDS011;7448;52.698;5.186;2022-08-11T07:55:04;0.00;;;0.00;;
14714;SDS011;7448;52.698;5.186;2022-08-11T07:57:32;0.05;;;0.05;;
14714;SDS011;7448;52.698;5.186;2022-08-11T08:00:18;0.00;;;0.00;;
14714;SDS011;7448;52.698;5.186;2022-08-11T08:03:04;0.00;;;0.00;;
14714;SDS011;7448;52.698;5.186;2022-08-11T08:05:49;0.00;;;0.00;;
14714;SDS011;7448;52.698;5.186;2022-08-11T08:08:35;0.03;;;0.03;;
14714;SDS011;7448;52.698;5.186;2022-08-11T08:11:20;0.10;;;0.10;;
14714;SDS011;7448;52.698;5.186;2022-08-11T08:14:07;0.10;;;0.10;;
14714;SDS011;7448;52.698;5.186;2022-08-11T08:16:53;0.08;;;0.08;;
14714;SDS011;7448;52.698;5.186;2022-08-11T08:19:38;0.10;;;0.10;;
14714;SDS011;7448;52.698;5.186;2022-08-11T08:22:08;0.00;;;0.00;;
14714;SDS011;7448;52.698;5.186;2022-08-11T08:24:35;0.03;;;0.03;;
14714;SDS011;7448;52.698;5.186;2022-08-11T08:27:02;0.00;;;0.00;;
14714;SDS011;7448;52.698;5.186;2022-08-11T08:29:30;0.00;;;0.00;;
14714;SDS011;7448;52.698;5.186;2022-08-11T08:32:16;0.00;;;0.00;;
14714;SDS011;7448;52.698;5.186;2022-08-11T08:34:43;0.00;;;0.00;;
14714;SDS011;7448;52.698;5.186;2022-08-11T08:37:10;0.00;;;0.00;;
14714;SDS011;7448;52.698;5.186;2022-08-11T08:39:37;0.00;;;0.00;;
14714;SDS011;7448;52.698;5.186;2022-08-11T08:42:10;0.00;;;0.00;;
14714;SDS011;7448;52.698;5.186;2022-08-11T08:44:42;0.00;;;0.00;;
14714;SDS011;7448;52.698;5.186;2022-08-11T08:47:14;0.10;;;0.10;;
14714;SDS011;7448;52.698;5.186;2022-08-11T08:49:48;0.08;;;0.08;;
14714;SDS011;7448;52.698;5.186;2022-08-11T08:52:17;0.00;;;0.00;;
14714;SDS011;7448;52.698;5.186;2022-08-11T08:54:44;0.08;;;0.08;;
14714;SDS011;7448;52.698;5.186;2022-08-11T08:57:11;0.10;;;0.10;;
14714;SDS011;7448;52.698;5.186;2022-08-11T08:59:39;0.00;;;0.00;;
14714;SDS011;7448;52.698;5.186;2022-08-11T09:02:06;0.10;;;0.10;;
14714;SDS011;7448;52.698;5.186;2022-08-11T09:04:37;0.05;;;0.05;;
14714;SDS011;7448;52.698;5.186;2022-08-11T09:07:15;0.00;;;0.00;;
14714;SDS011;7448;52.698;5.186;2022-08-11T09:09:46;0.00;;;0.00;;
14714;SDS011;7448;52.698;5.186;2022-08-11T09:12:13;0.10;;;0.10;;
14714;SDS011;7448;52.698;5.186;2022-08-11T09:14:42;0.08;;;0.08;;
14714;SDS011;7448;52.698;5.186;2022-08-11T09:17:37;0.00;;;0.00;;
14714;SDS011;7448;52.698;5.186;2022-08-11T09:20:05;0.03;;;0.03;;
14714;SDS011;7448;52.698;5.186;2022-08-11T09:22:34;0.10;;;0.10;;
14714;SDS011;7448;52.698;5.186;2022-08-11T09:25:20;0.10;;;0.10;;
14714;SDS011;7448;52.698;5.186;2022-08-11T09:28:09;0.00;;;0.00;;
14714;SDS011;7448;52.698;5.186;2022-08-11T09:30:36;0.00;;;0.00;;
14714;SDS011;7448;52.698;5.186;2022-08-11T09:33:05;0.03;;;0.03;;
14714;SDS011;7448;52.698;5.186;2022-08-11T09:35:33;0.00;;;0.00;;
14714;SDS011;7448;52.698;5.186;2022-08-11T09:38:03;0.10;;;0.10;;
14714;SDS011;7448;52.698;5.186;2022-08-11T09:40:50;0.00;;;0.00;;
14714;SDS011;7448;52.698;5.186;2022-08-11T09:43:18;0.00;;;0.00;;
14714;SDS011;7448;52.698;5.186;2022-08-11T09:46:03;0.00;;;0.00;;
14714;SDS011;7448;52.698;5.186;2022-08-11T09:48:34;0.00;;;0.00;;
14714;SDS011;7448;52.698;5.186;2022-08-11T09:51:01;0.08;;;0.08;;
14714;SDS011;7448;52.698;5.186;2022-08-11T09:53:34;0.00;;;0.00;;
14714;SDS011;7448;52.698;5.186;2022-08-11T09:56:00;0.10;;;0.10;;
14714;SDS011;7448;52.698;5.186;2022-08-11T09:58:50;0.00;;;0.00;;
14714;SDS011;7448;52.698;5.186;2022-08-11T10:01:19;0.08;;;0.08;;
14714;SDS011;7448;52.698;5.186;2022-08-11T10:03:54;0.10;;;0.10;;
14714;SDS011;7448;52.698;5.186;2022-08-11T10:06:22;0.00;;;0.00;;
14714;SDS011;7448;52.698;5.186;2022-08-11T10:09:07;0.00;;;0.00;;
14714;SDS011;7448;52.698;5.186;2022-08-11T10:11:34;0.00;;;0.00;;
14714;SDS011;7448;52.698;5.186;2022-08-11T10:14:01;0.00;;;0.00;;
14714;SDS011;7448;52.698;5.186;2022-08-11T10:16:48;0.00;;;0.00;;
14714;SDS011;7448;52.698;5.186;2022-08-11T10:19:16;0.00;;;0.00;;
14714;SDS011;7448;52.698;5.186;2022-08-11T10:21:45;0.00;;;0.00;;
14714;SDS011;7448;52.698;5.186;2022-08-11T10:24:31;0.00;;;0.00;;
14714;SDS011;7448;52.698;5.186;2022-08-11T10:27:16;0.00;;;0.00;;
14714;SDS011;7448;52.698;5.186;2022-08-11T10:29:43;0.00;;;0.00;;
14714;SDS011;7448;52.698;5.186;2022-08-11T10:32:29;0.10;;;0.10;;
14714;SDS011;7448;52.698;5.186;2022-08-11T10:35:31;0.05;;;0.05;;
14714;SDS011;7448;52.698;5.186;2022-08-11T10:37:58;0.00;;;0.00;;
14714;SDS011;7448;52.698;5.186;2022-08-11T10:40:25;0.00;;;0.00;;
14714;SDS011;7448;52.698;5.186;2022-08-11T10:42:54;0.00;;;0.00;;
14714;SDS011;7448;52.698;5.186;2022-08-11T10:45:37;0.00;;;0.00;;
14714;SDS011;7448;52.698;5.186;2022-08-11T10:48:24;0.00;;;0.00;;
14714;SDS011;7448;52.698;5.186;2022-08-11T10:50:51;0.10;;;0.10;;
14714;SDS011;7448;52.698;5.186;2022-08-11T10:53:37;0.08;;;0.08;;
14714;SDS011;7448;52.698;5.186;2022-08-11T10:56:23;0.10;;;0.10;;
14714;SDS011;7448;52.698;5.186;2022-08-11T10:59:08;0.00;;;0.00;;
14714;SDS011;7448;52.698;5.186;2022-08-11T11:01:41;0.00;;;0.00;;
14714;SDS011;7448;52.698;5.186;2022-08-11T11:04:13;0.10;;;0.10;;
14714;SDS011;7448;52.698;5.186;2022-08-11T11:06:50;0.10;;;0.10;;
14714;SDS011;7448;52.698;5.186;2022-08-11T11:09:23;0.10;;;0.10;;
14714;SDS011;7448;52.698;5.186;2022-08-11T11:11:54;0.10;;;0.10;;
14714;SDS011;7448;52.698;5.186;2022-08-11T11:14:40;0.03;;;0.03;;
14714;SDS011;7448;52.698;5.186;2022-08-11T11:17:31;0.10;;;0.10;;
14714;SDS011;7448;52.698;5.186;2022-08-11T11:20:29;0.10;;;0.10;;
14714;SDS011;7448;52.698;5.186;2022-08-11T11:22:58;0.10;;;0.10;;
14714;SDS011;7448;52.698;5.186;2022-08-11T11:28:37;0.10;;;0.10;;
14714;SDS011;7448;52.698;5.186;2022-08-11T11:31:17;0.10;;;0.10;;
14714;SDS011;7448;52.698;5.186;2022-08-11T11:38:49;0.10;;;0.10;;
14714;SDS011;7448;52.698;5.186;2022-08-11T11:41:16;0.00;;;0.00;;
14714;SDS011;7448;52.698;5.186;2022-08-11T11:43:53;0.10;;;0.10;;
14714;SDS011;7448;52.698;5.186;2022-08-11T11:46:21;0.10;;;0.10;;
14714;SDS011;7448;52.698;5.186;2022-08-11T11:48:48;0.10;;;0.10;;
14714;SDS011;7448;52.698;5.186;2022-08-11T11:51:15;0.10;;;0.10;;
14714;SDS011;7448;52.698;5.186;2022-08-11T11:53:42;0.03;;;0.03;;
14714;SDS011;7448;52.698;5.186;2022-08-11T11:56:10;0.10;;;0.10;;
14714;SDS011;7448;52.698;5.186;2022-08-11T11:58:37;0.10;;;0.10;;
14714;SDS011;7448;52.698;5.186;2022-08-11T12:01:24;0.10;;;0.10;;
14714;SDS011;7448;52.698;5.186;2022-08-11T12:03:51;0.10;;;0.10;;
14714;SDS011;7448;52.698;5.186;2022-08-11T12:06:20;0.10;;;0.10;;
14714;SDS011;7448;52.698;5.186;2022-08-11T12:08:48;0.10;;;0.10;;
14714;SDS011;7448;52.698;5.186;2022-08-11T12:11:15;0.10;;;0.10;;
14714;SDS011;7448;52.698;5.186;2022-08-11T12:14:04;0.10;;;0.10;;
14714;SDS011;7448;52.698;5.186;2022-08-11T12:16:32;0.05;;;0.05;;
14714;SDS011;7448;52.698;5.186;2022-08-11T12:19:00;0.10;;;0.10;;
14714;SDS011;7448;52.698;5.186;2022-08-11T12:21:28;0.10;;;0.10;;
14714;SDS011;7448;52.698;5.186;2022-08-11T12:23:57;0.10;;;0.10;;
14714;SDS011;7448;52.698;5.186;2022-08-11T12:26:43;0.10;;;0.10;;
14714;SDS011;7448;52.698;5.186;2022-08-11T12:29:20;0.10;;;0.10;;
14714;SDS011;7448;52.698;5.186;2022-08-11T12:31:48;0.05;;;0.05;;
14714;SDS011;7448;52.698;5.186;2022-08-11T12:34:15;0.10;;;0.10;;
14714;SDS011;7448;52.698;5.186;2022-08-11T12:36:43;0.10;;;0.10;;
14714;SDS011;7448;52.698;5.186;2022-08-11T12:39:11;0.10;;;0.10;;
14714;SDS011;7448;52.698;5.186;2022-08-11T12:41:38;0.10;;;0.10;;
14714;SDS011;7448;52.698;5.186;2022-08-11T12:44:26;0.10;;;0.10;;
14714;SDS011;7448;52.698;5.186;2022-08-11T12:47:12;0.10;;;0.10;;
14714;SDS011;7448;52.698;5.186;2022-08-11T12:49:42;0.05;;;0.05;;
14714;SDS011;7448;52.698;5.186;2022-08-11T12:52:30;0.10;;;0.10;;
14714;SDS011;7448;52.698;5.186;2022-08-11T12:55:02;0.10;;;0.10;;
14714;SDS011;7448;52.698;5.186;2022-08-11T12:57:42;0.10;;;0.10;;
14714;SDS011;7448;52.698;5.186;2022-08-11T13:00:29;0.10;;;0.10;;
14714;SDS011;7448;52.698;5.186;2022-08-11T13:03:17;0.10;;;0.10;;
14714;SDS011;7448;52.698;5.186;2022-08-11T13:06:03;0.03;;;0.03;;
14714;SDS011;7448;52.698;5.186;2022-08-11T13:08:30;0.10;;;0.10;;
14714;SDS011;7448;52.698;5.186;2022-08-11T13:10:58;0.10;;;0.10;;
14714;SDS011;7448;52.698;5.186;2022-08-11T13:13:44;0.10;;;0.10;;
14714;SDS011;7448;52.698;5.186;2022-08-11T13:16:11;0.10;;;0.10;;
14714;SDS011;7448;52.698;5.186;2022-08-11T13:18:39;0.10;;;0.10;;
14714;SDS011;7448;52.698;5.186;2022-08-11T13:21:08;0.10;;;0.10;;
14714;SDS011;7448;52.698;5.186;2022-08-11T13:23:35;0.03;;;0.03;;
14714;SDS011;7448;52.698;5.186;2022-08-11T13:26:03;0.10;;;0.10;;
14714;SDS011;7448;52.698;5.186;2022-08-11T13:28:29;0.10;;;0.10;;
14714;SDS011;7448;52.698;5.186;2022-08-11T13:30:56;0.10;;;0.10;;
14714;SDS011;7448;52.698;5.186;2022-08-11T13:33:42;0.10;;;0.10;;
14714;SDS011;7448;52.698;5.186;2022-08-11T13:36:09;0.10;;;0.10;;
14714;SDS011;7448;52.698;5.186;2022-08-11T13:38:37;0.10;;;0.10;;
14714;SDS011;7448;52.698;5.186;2022-08-11T13:41:06;0.00;;;0.00;;
14714;SDS011;7448;52.698;5.186;2022-08-11T13:43:52;0.00;;;0.00;;
14714;SDS011;7448;52.698;5.186;2022-08-11T13:46:20;0.10;;;0.10;;
14714;SDS011;7448;52.698;5.186;2022-08-11T13:48:49;0.10;;;0.10;;
14714;SDS011;7448;52.698;5.186;2022-08-11T13:51:16;0.10;;;0.10;;
14714;SDS011;7448;52.698;5.186;2022-08-11T13:53:56;0.10;;;0.10;;
14714;SDS011;7448;52.698;5.186;2022-08-11T13:56:24;0.10;;;0.10;;
14714;SDS011;7448;52.698;5.186;2022-08-11T13:58:51;0.10;;;0.10;;
14714;SDS011;7448;52.698;5.186;2022-08-11T14:01:19;0.10;;;0.10;;
14714;SDS011;7448;52.698;5.186;2022-08-11T14:03:46;0.00;;;0.00;;
14714;SDS011;7448;52.698;5.186;2022-08-11T14:06:16;0.08;;;0.08;;
14714;SDS011;7448;52.698;5.186;2022-08-11T14:08:43;0.03;;;0.03;;
14714;SDS011;7448;52.698;5.186;2022-08-11T14:11:10;0.10;;;0.10;;
14714;SDS011;7448;52.698;5.186;2022-08-11T14:13:56;0.10;;;0.10;;
14714;SDS011;7448;52.698;5.186;2022-08-11T14:16:28;0.10;;;0.10;;
14714;SDS011;7448;52.698;5.186;2022-08-11T14:19:00;0.00;;;0.00;;
14714;SDS011;7448;52.698;5.186;2022-08-11T14:21:28;0.10;;;0.10;;
14714;SDS011;7448;52.698;5.186;2022-08-11T14:24:14;0.10;;;0.10;;
14714;SDS011;7448;52.698;5.186;2022-08-11T14:26:41;0.00;;;0.00;;
14714;SDS011;7448;52.698;5.186;2022-08-11T14:29:12;0.00;;;0.00;;
14714;SDS011;7448;52.698;5.186;2022-08-11T14:31:44;0.00;;;0.00;;
14714;SDS011;7448;52.698;5.186;2022-08-11T14:34:11;0.10;;;0.10;;
14714;SDS011;7448;52.698;5.186;2022-08-11T14:36:43;0.10;;;0.10;;
14714;SDS011;7448;52.698;5.186;2022-08-11T14:39:11;0.00;;;0.00;;
14714;SDS011;7448;52.698;5.186;2022-08-11T14:41:42;0.10;;;0.10;;
14714;SDS011;7448;52.698;5.186;2022-08-11T14:44:27;0.10;;;0.10;;
14714;SDS011;7448;52.698;5.186;2022-08-11T14:47:14;0.10;;;0.10;;
14714;SDS011;7448;52.698;5.186;2022-08-11T14:49:42;0.10;;;0.10;;
14714;SDS011;7448;52.698;5.186;2022-08-11T14:52:10;0.10;;;0.10;;
14714;SDS011;7448;52.698;5.186;2022-08-11T14:54:43;0.10;;;0.10;;
14714;SDS011;7448;52.698;5.186;2022-08-11T14:57:30;0.10;;;0.10;;
14714;SDS011;7448;52.698;5.186;2022-08-11T15:00:00;0.10;;;0.10;;
14714;SDS011;7448;52.698;5.186;2022-08-11T15:02:28;0.10;;;0.10;;
14714;SDS011;7448;52.698;5.186;2022-08-11T15:05:13;0.03;;;0.03;;
14714;SDS011;7448;52.698;5.186;2022-08-11T15:07:40;0.10;;;0.10;;
14714;SDS011;7448;52.698;5.186;2022-08-11T15:10:07;0.00;;;0.00;;
14714;SDS011;7448;52.698;5.186;2022-08-11T15:12:35;0.00;;;0.00;;
14714;SDS011;7448;52.698;5.186;2022-08-11T15:15:03;0.10;;;0.10;;
14714;SDS011;7448;52.698;5.186;2022-08-11T15:17:50;0.00;;;0.00;;
14714;SDS011;7448;52.698;5.186;2022-08-11T15:20:18;0.10;;;0.10;;
14714;SDS011;7448;52.698;5.186;2022-08-11T15:23:04;0.10;;;0.10;;
14714;SDS011;7448;52.698;5.186;2022-08-11T15:25:57;0.10;;;0.10;;
14714;SDS011;7448;52.698;5.186;2022-08-11T15:28:24;0.10;;;0.10;;
14714;SDS011;7448;52.698;5.186;2022-08-11T15:31:11;0.10;;;0.10;;
14714;SDS011;7448;52.698;5.186;2022-08-11T15:33:54;0.05;;;0.05;;
14714;SDS011;7448;52.698;5.186;2022-08-11T15:36:41;0.10;;;0.10;;
14714;SDS011;7448;52.698;5.186;2022-08-11T15:39:37;0.10;;;0.10;;
14714;SDS011;7448;52.698;5.186;2022-08-11T15:42:24;0.10;;;0.10;;
14714;SDS011;7448;52.698;5.186;2022-08-11T15:45:08;0.10;;;0.10;;
14714;SDS011;7448;52.698;5.186;2022-08-11T15:47:55;0.10;;;0.10;;
14714;SDS011;7448;52.698;5.186;2022-08-11T15:50:22;0.10;;;0.10;;
14714;SDS011;7448;52.698;5.186;2022-08-11T15:52:55;0.10;;;0.10;;
14714;SDS011;7448;52.698;5.186;2022-08-11T15:55:24;0.10;;;0.10;;
14714;SDS011;7448;52.698;5.186;2022-08-11T15:57:52;0.10;;;0.10;;
14714;SDS011;7448;52.698;5.186;2022-08-11T16:00:38;0.10;;;0.10;;
14714;SDS011;7448;52.698;5.186;2022-08-11T16:03:25;0.10;;;0.10;;
14714;SDS011;7448;52.698;5.186;2022-08-11T16:06:11;0.10;;;0.10;;
14714;SDS011;7448;52.698;5.186;2022-08-11T16:08:39;0.10;;;0.10;;
14714;SDS011;7448;52.698;5.186;2022-08-11T16:11:06;0.10;;;0.10;;
14714;SDS011;7448;52.698;5.186;2022-08-11T16:13:33;0.10;;;0.10;;
14714;SDS011;7448;52.698;5.186;2022-08-11T16:16:02;0.10;;;0.10;;
14714;SDS011;7448;52.698;5.186;2022-08-11T16:18:43;0.10;;;0.10;;
14714;SDS011;7448;52.698;5.186;2022-08-11T16:21:25;0.08;;;0.08;;
14714;SDS011;7448;52.698;5.186;2022-08-11T16:23:52;0.10;;;0.10;;
14714;SDS011;7448;52.698;5.186;2022-08-11T16:26:21;0.10;;;0.10;;
14714;SDS011;7448;52.698;5.186;2022-08-11T16:28:51;0.10;;;0.10;;
14714;SDS011;7448;52.698;5.186;2022-08-11T16:31:19;0.10;;;0.10;;
14714;SDS011;7448;52.698;5.186;2022-08-11T16:33:46;0.10;;;0.10;;
14714;SDS011;7448;52.698;5.186;2022-08-11T16:36:13;0.10;;;0.10;;
14714;SDS011;7448;52.698;5.186;2022-08-11T16:38:59;0.10;;;0.10;;
14714;SDS011;7448;52.698;5.186;2022-08-11T16:41:28;0.10;;;0.10;;
14714;SDS011;7448;52.698;5.186;2022-08-11T16:44:15;0.10;;;0.10;;
14714;SDS011;7448;52.698;5.186;2022-08-11T16:47:03;0.10;;;0.10;;
14714;SDS011;7448;52.698;5.186;2022-08-11T16:49:31;0.10;;;0.10;;
14714;SDS011;7448;52.698;5.186;2022-08-11T16:51:58;0.10;;;0.10;;
14714;SDS011;7448;52.698;5.186;2022-08-11T16:54:32;0.10;;;0.10;;
14714;SDS011;7448;52.698;5.186;2022-08-11T16:56:59;0.10;;;0.10;;
14714;SDS011;7448;52.698;5.186;2022-08-11T16:59:47;0.00;;;0.00;;
14714;SDS011;7448;52.698;5.186;2022-08-11T17:02:15;0.10;;;0.10;;
14714;SDS011;7448;52.698;5.186;2022-08-11T17:05:02;0.10;;;0.10;;
14714;SDS011;7448;52.698;5.186;2022-08-11T17:07:50;0.10;;;0.10;;
14714;SDS011;7448;52.698;5.186;2022-08-11T17:10:50;0.08;;;0.08;;
14714;SDS011;7448;52.698;5.186;2022-08-11T17:13:47;0.10;;;0.10;;
14714;SDS011;7448;52.698;5.186;2022-08-11T17:16:17;0.10;;;0.10;;
14714;SDS011;7448;52.698;5.186;2022-08-11T17:21:35;0.10;;;0.10;;
14714;SDS011;7448;52.698;5.186;2022-08-11T17:24:24;0.10;;;0.10;;
14714;SDS011;7448;52.698;5.186;2022-08-11T17:26:51;0.10;;;0.10;;
14714;SDS011;7448;52.698;5.186;2022-08-11T17:29:27;0.10;;;0.10;;
14714;SDS011;7448;52.698;5.186;2022-08-11T17:31:54;0.10;;;0.10;;
14714;SDS011;7448;52.698;5.186;2022-08-11T17:34:41;0.10;;;0.10;;
14714;SDS011;7448;52.698;5.186;2022-08-11T17:37:27;0.10;;;0.10;;
14714;SDS011;7448;52.698;5.186;2022-08-11T17:39:55;0.10;;;0.10;;
14714;SDS011;7448;52.698;5.186;2022-08-11T17:42:22;0.10;;;0.10;;
14714;SDS011;7448;52.698;5.186;2022-08-11T17:45:09;0.10;;;0.10;;
14714;SDS011;7448;52.698;5.186;2022-08-11T17:47:55;0.10;;;0.10;;
14714;SDS011;7448;52.698;5.186;2022-08-11T17:50:41;0.10;;;0.10;;
14714;SDS011;7448;52.698;5.186;2022-08-11T17:53:08;0.10;;;0.10;;
14714;SDS011;7448;52.698;5.186;2022-08-11T17:55:54;0.10;;;0.10;;
14714;SDS011;7448;52.698;5.186;2022-08-11T17:58:40;0.10;;;0.10;;
14714;SDS011;7448;52.698;5.186;2022-08-11T18:01:25;0.10;;;0.10;;
14714;SDS011;7448;52.698;5.186;2022-08-11T18:03:53;0.10;;;0.10;;
14714;SDS011;7448;52.698;5.186;2022-08-11T18:06:21;0.10;;;0.10;;
14714;SDS011;7448;52.698;5.186;2022-08-11T18:08:47;0.10;;;0.10;;
14714;SDS011;7448;52.698;5.186;2022-08-11T18:11:34;0.08;;;0.08;;
14714;SDS011;7448;52.698;5.186;2022-08-11T18:14:20;0.10;;;0.10;;
14714;SDS011;7448;52.698;5.186;2022-08-11T18:17:07;0.03;;;0.03;;
14714;SDS011;7448;52.698;5.186;2022-08-11T18:19:52;0.10;;;0.10;;
14714;SDS011;7448;52.698;5.186;2022-08-11T18:22:39;0.10;;;0.10;;
14714;SDS011;7448;52.698;5.186;2022-08-11T18:25:26;0.10;;;0.10;;
14714;SDS011;7448;52.698;5.186;2022-08-11T18:28:12;0.10;;;0.10;;
14714;SDS011;7448;52.698;5.186;2022-08-11T18:30:59;0.10;;;0.10;;
14714;SDS011;7448;52.698;5.186;2022-08-11T18:33:49;0.15;;;0.15;;
14714;SDS011;7448;52.698;5.186;2022-08-11T18:36:37;0.10;;;0.10;;
14714;SDS011;7448;52.698;5.186;2022-08-11T18:39:22;0.00;;;0.00;;
14714;SDS011;7448;52.698;5.186;2022-08-11T18:42:10;0.10;;;0.10;;
14714;SDS011;7448;52.698;5.186;2022-08-11T18:45:00;0.10;;;0.10;;
14714;SDS011;7448;52.698;5.186;2022-08-11T18:47:48;0.10;;;0.10;;
14714;SDS011;7448;52.698;5.186;2022-08-11T18:50:34;0.00;;;0.00;;
14714;SDS011;7448;52.698;5.186;2022-08-11T18:53:20;0.10;;;0.10;;
14714;SDS011;7448;52.698;5.186;2022-08-11T18:56:06;0.10;;;0.10;;